sensor_id;sensor_type;location;lat;lon;timestamp;temperature;humidity
33460;DHT22;19795;53.160;6.612;2023-01-30T05:30:23;5.10;99.90
33460;DHT22;19795;53.160;6.612;2023-01-30T05:32:49;5.20;99.90
33460;DHT22;19795;53.160;6.612;2023-01-30T05:37:51;5.00;99.90
33460;DHT22;19795;53.160;6.612;2023-01-30T05:40:17;5.20;99.90
33460;DHT22;19795;53.160;6.612;2023-01-30T05:42:42;5.10;99.90
33460;DHT22;19795;53.160;6.612;2023-01-30T05:45:08;5.20;99.90
33460;DHT22;19795;53.160;6.612;2023-01-30T05:47:34;5.20;99.90
33460;DHT22;19795;53.160;6.612;2023-01-30T05:50:00;5.20;99.90
33460;DHT22;19795;53.160;6.612;2023-01-30T05:52:25;5.20;99.90
33460;DHT22;19795;53.160;6.612;2023-01-30T05:54:51;5.40;99.90
33460;DHT22;19795;53.160;6.612;2023-01-30T05:57:17;5.30;99.90
33460;DHT22;19795;53.160;6.612;2023-01-30T05:59:42;5.10;99.90
33460;DHT22;19795;53.160;6.612;2023-01-30T06:02:09;5.00;99.90
33460;DHT22;19795;53.160;6.612;2023-01-30T06:04:35;5.10;99.90
33460;DHT22;19795;53.160;6.612;2023-01-30T06:07:01;5.20;99.90
33460;DHT22;19795;53.160;6.612;2023-01-30T06:09:27;5.00;99.90
33460;DHT22;19795;53.160;6.612;2023-01-30T06:11:53;4.90;99.90
33460;DHT22;19795;53.160;6.612;2023-01-30T06:14:20;5.00;99.90
33460;DHT22;19795;53.160;6.612;2023-01-30T06:16:45;5.20;99.90
33460;DHT22;19795;53.160;6.612;2023-01-30T06:19:11;5.20;99.90
33460;DHT22;19795;53.160;6.612;2023-01-30T06:21:37;5.50;99.90
33460;DHT22;19795;53.160;6.612;2023-01-30T06:24:04;5.60;99.90
33460;DHT22;19795;53.160;6.612;2023-01-30T06:26:29;5.50;99.90
33460;DHT22;19795;53.160;6.612;2023-01-30T06:28:55;5.70;99.90
33460;DHT22;19795;53.160;6.612;2023-01-30T06:31:21;5.90;99.90
33460;DHT22;19795;53.160;6.612;2023-01-30T06:33:46;5.80;99.90
33460;DHT22;19795;53.160;6.612;2023-01-30T06:36:13;5.70;99.90
33460;DHT22;19795;53.160;6.612;2023-01-30T06:38:39;5.70;99.90
33460;DHT22;19795;53.160;6.612;2023-01-30T06:41:05;5.70;99.90
33460;DHT22;19795;53.160;6.612;2023-01-30T06:43:31;5.70;99.90
33460;DHT22;19795;53.160;6.612;2023-01-30T06:45:58;5.70;99.90
33460;DHT22;19795;53.160;6.612;2023-01-30T06:48:24;5.80;99.90
33460;DHT22;19795;53.160;6.612;2023-01-30T06:50:49;5.80;99.90
33460;DHT22;19795;53.160;6.612;2023-01-30T06:53:16;5.60;99.90
33460;DHT22;19795;53.160;6.612;2023-01-30T06:55:42;5.50;99.90
33460;DHT22;19795;53.160;6.612;2023-01-30T06:58:09;5.60;99.90
33460;DHT22;19795;53.160;6.612;2023-01-30T07:00:37;5.60;99.90
33460;DHT22;19795;53.160;6.612;2023-01-30T07:03:05;5.60;99.90
33460;DHT22;19795;53.160;6.612;2023-01-30T07:05:30;5.70;99.90
33460;DHT22;19795;53.160;6.612;2023-01-30T07:07:56;5.70;99.90
33460;DHT22;19795;53.160;6.612;2023-01-30T07:10:23;5.70;99.90
33460;DHT22;19795;53.160;6.612;2023-01-30T07:12:50;5.80;99.90
33460;DHT22;19795;53.160;6.612;2023-01-30T07:15:16;5.80;99.90
33460;DHT22;19795;53.160;6.612;2023-01-30T07:17:42;5.70;99.90
33460;DHT22;19795;53.160;6.612;2023-01-30T07:20:09;5.80;99.90
33460;DHT22;19795;53.160;6.612;2023-01-30T07:22:35;5.80;99.90
33460;DHT22;19795;53.160;6.612;2023-01-30T07:25:01;5.80;99.90
33460;DHT22;19795;53.160;6.612;2023-01-30T07:27:26;5.90;99.90
33460;DHT22;19795;53.160;6.612;2023-01-30T07:29:52;5.90;99.90
33460;DHT22;19795;53.160;6.612;2023-01-30T07:32:18;6.00;99.90
33460;DHT22;19795;53.160;6.612;2023-01-30T07:34:46;5.90;99.90
33460;DHT22;19795;53.160;6.612;2023-01-30T07:37:12;5.90;99.90
33460;DHT22;19795;53.160;6.612;2023-01-30T07:39:38;5.90;99.90
33460;DHT22;19795;53.160;6.612;2023-01-30T07:42:04;6.00;99.90
33460;DHT22;19795;53.160;6.612;2023-01-30T07:44:30;5.90;99.90
33460;DHT22;19795;53.160;6.612;2023-01-30T07:46:56;6.00;99.90
33460;DHT22;19795;53.160;6.612;2023-01-30T07:49:21;5.90;99.90
33460;DHT22;19795;53.160;6.612;2023-01-30T07:51:47;6.00;99.90
33460;DHT22;19795;53.160;6.612;2023-01-30T07:54:12;6.10;99.90
33460;DHT22;19795;53.160;6.612;2023-01-30T07:56:38;6.10;99.90
33460;DHT22;19795;53.160;6.612;2023-01-30T07:59:04;5.90;99.90
33460;DHT22;19795;53.160;6.612;2023-01-30T08:01:31;6.10;99.90
33460;DHT22;19795;53.160;6.612;2023-01-30T08:03:57;6.20;99.90
33460;DHT22;19795;53.160;6.612;2023-01-30T08:06:23;6.20;99.90
33460;DHT22;19795;53.160;6.612;2023-01-30T08:08:48;6.10;99.90
33460;DHT22;19795;53.160;6.612;2023-01-30T08:11:14;6.20;99.90
33460;DHT22;19795;53.160;6.612;2023-01-30T08:13:40;6.10;99.90
33460;DHT22;19795;53.160;6.612;2023-01-30T08:16:06;6.30;99.90
33460;DHT22;19795;53.160;6.612;2023-01-30T08:18:32;6.30;99.90
33460;DHT22;19795;53.160;6.612;2023-01-30T08:20:59;6.20;99.90
33460;DHT22;19795;53.160;6.612;2023-01-30T08:23:25;6.40;99.90
33460;DHT22;19795;53.160;6.612;2023-01-30T08:25:55;6.30;99.90
33460;DHT22;19795;53.160;6.612;2023-01-30T08:28:20;6.40;99.90
33460;DHT22;19795;53.160;6.612;2023-01-30T08:30:46;6.30;99.90
33460;DHT22;19795;53.160;6.612;2023-01-30T08:33:14;6.30;99.90
33460;DHT22;19795;53.160;6.612;2023-01-30T08:35:39;6.20;99.90
33460;DHT22;19795;53.160;6.612;2023-01-30T08:38:06;6.40;99.90
33460;DHT22;19795;53.160;6.612;2023-01-30T08:40:34;6.30;99.90
33460;DHT22;19795;53.160;6.612;2023-01-30T08:43:00;6.40;99.90
33460;DHT22;19795;53.160;6.612;2023-01-30T08:45:25;6.50;99.90
33460;DHT22;19795;53.160;6.612;2023-01-30T08:47:51;6.50;99.90
33460;DHT22;19795;53.160;6.612;2023-01-30T08:50:17;6.50;99.90
33460;DHT22;19795;53.160;6.612;2023-01-30T08:52:42;6.40;99.90
33460;DHT22;19795;53.160;6.612;2023-01-30T08:55:09;6.50;99.90
33460;DHT22;19795;53.160;6.612;2023-01-30T08:57:35;6.50;99.90
33460;DHT22;19795;53.160;6.612;2023-01-30T09:00:00;6.50;99.90
33460;DHT22;19795;53.160;6.612;2023-01-30T09:02:26;6.60;99.90
33460;DHT22;19795;53.160;6.612;2023-01-30T09:04:52;6.80;99.90
33460;DHT22;19795;53.160;6.612;2023-01-30T09:07:18;6.80;99.90
33460;DHT22;19795;53.160;6.612;2023-01-30T09:09:44;6.80;99.90
33460;DHT22;19795;53.160;6.612;2023-01-30T09:12:11;6.80;99.90
33460;DHT22;19795;53.160;6.612;2023-01-30T09:14:36;6.80;99.90
33460;DHT22;19795;53.160;6.612;2023-01-30T09:17:02;6.60;99.90
33460;DHT22;19795;53.160;6.612;2023-01-30T09:19:28;6.40;99.90
33460;DHT22;19795;53.160;6.612;2023-01-30T09:21:54;6.40;99.90
33460;DHT22;19795;53.160;6.612;2023-01-30T09:24:21;6.40;99.90
33460;DHT22;19795;53.160;6.612;2023-01-30T09:26:52;6.50;99.90
33460;DHT22;19795;53.160;6.612;2023-01-30T09:29:18;6.50;99.90
33460;DHT22;19795;53.160;6.612;2023-01-30T09:31:43;6.60;99.90
33460;DHT22;19795;53.160;6.612;2023-01-30T09:34:09;6.70;99.90
33460;DHT22;19795;53.160;6.612;2023-01-30T09:36:35;6.70;99.90
33460;DHT22;19795;53.160;6.612;2023-01-30T09:39:00;6.70;99.90
33460;DHT22;19795;53.160;6.612;2023-01-30T09:47:21;5.90;99.90
33460;DHT22;19795;53.160;6.612;2023-01-30T09:55:29;6.40;99.90
33460;DHT22;19795;53.160;6.612;2023-01-30T09:57:57;6.40;99.90
33460;DHT22;19795;53.160;6.612;2023-01-30T10:00:40;6.50;99.90
33460;DHT22;19795;53.160;6.612;2023-01-30T10:03:11;6.60;99.90
33460;DHT22;19795;53.160;6.612;2023-01-30T10:20:25;7.10;99.90
33460;DHT22;19795;53.160;6.612;2023-01-30T10:25:49;7.50;99.90
33460;DHT22;19795;53.160;6.612;2023-01-30T10:28:27;7.50;99.90
33460;DHT22;19795;53.160;6.612;2023-01-30T10:31:15;7.10;99.90
33460;DHT22;19795;53.160;6.612;2023-01-30T10:33:49;6.70;99.90
33460;DHT22;19795;53.160;6.612;2023-01-30T10:39:00;6.50;99.90
33460;DHT22;19795;53.160;6.612;2023-01-30T10:41:50;6.00;99.90
33460;DHT22;19795;53.160;6.612;2023-01-30T10:44:16;5.50;99.90
33460;DHT22;19795;53.160;6.612;2023-01-30T10:49:30;5.20;99.90
33460;DHT22;19795;53.160;6.612;2023-01-30T11:03:25;5.90;99.90
33460;DHT22;19795;53.160;6.612;2023-01-30T11:06:22;6.00;99.90
33460;DHT22;19795;53.160;6.612;2023-01-30T11:08:49;6.10;99.90
33460;DHT22;19795;53.160;6.612;2023-01-30T11:16:27;6.40;99.90
33460;DHT22;19795;53.160;6.612;2023-01-30T11:18:53;6.70;99.90
33460;DHT22;19795;53.160;6.612;2023-01-30T11:21:28;6.90;99.90
33460;DHT22;19795;53.160;6.612;2023-01-30T11:23:55;6.90;99.90
33460;DHT22;19795;53.160;6.612;2023-01-30T11:26:42;6.90;99.90
33460;DHT22;19795;53.160;6.612;2023-01-30T11:29:29;7.10;99.90
33460;DHT22;19795;53.160;6.612;2023-01-30T11:32:00;7.20;99.90
33460;DHT22;19795;53.160;6.612;2023-01-30T11:34:27;7.20;99.90
33460;DHT22;19795;53.160;6.612;2023-01-30T11:36:52;7.10;99.90
33460;DHT22;19795;53.160;6.612;2023-01-30T11:39:21;7.30;99.90
33460;DHT22;19795;53.160;6.612;2023-01-30T11:44:32;7.40;99.90
33460;DHT22;19795;53.160;6.612;2023-01-30T11:47:01;7.30;99.90
33460;DHT22;19795;53.160;6.612;2023-01-30T11:49:41;7.30;99.90
33460;DHT22;19795;53.160;6.612;2023-01-30T11:52:09;7.20;99.90
33460;DHT22;19795;53.160;6.612;2023-01-30T11:54:38;7.20;99.90
33460;DHT22;19795;53.160;6.612;2023-01-30T11:57:11;7.40;99.90
33460;DHT22;19795;53.160;6.612;2023-01-30T11:59:58;7.50;99.90
33460;DHT22;19795;53.160;6.612;2023-01-30T12:02:30;7.60;99.90
33460;DHT22;19795;53.160;6.612;2023-01-30T12:05:03;7.40;99.90
33460;DHT22;19795;53.160;6.612;2023-01-30T12:07:31;7.40;99.90
33460;DHT22;19795;53.160;6.612;2023-01-30T12:09:58;7.20;99.90
33460;DHT22;19795;53.160;6.612;2023-01-30T12:15:47;7.30;99.90
33460;DHT22;19795;53.160;6.612;2023-01-30T12:17:54;7.20;99.90
33460;DHT22;19795;53.160;6.612;2023-01-30T12:23:22;7.20;99.90
33460;DHT22;19795;53.160;6.612;2023-01-30T12:31:36;7.50;99.90
33460;DHT22;19795;53.160;6.612;2023-01-30T12:34:04;7.70;99.90
33460;DHT22;19795;53.160;6.612;2023-01-30T12:36:41;7.80;99.90
33460;DHT22;19795;53.160;6.612;2023-01-30T12:39:27;7.70;99.90
33460;DHT22;19795;53.160;6.612;2023-01-30T12:58:44;7.70;99.90
33460;DHT22;19795;53.160;6.612;2023-01-30T13:04:39;7.60;99.90
33460;DHT22;19795;53.160;6.612;2023-01-30T13:13:16;7.40;99.90
33460;DHT22;19795;53.160;6.612;2023-01-30T13:18:29;7.40;99.90
33460;DHT22;19795;53.160;6.612;2023-01-30T13:21:25;7.50;99.90
33460;DHT22;19795;53.160;6.612;2023-01-30T13:24:05;7.50;99.90
33460;DHT22;19795;53.160;6.612;2023-01-30T13:26:36;7.50;99.90
33460;DHT22;19795;53.160;6.612;2023-01-30T13:29:28;7.50;99.90
33460;DHT22;19795;53.160;6.612;2023-01-30T13:31:57;7.50;99.90
33460;DHT22;19795;53.160;6.612;2023-01-30T13:34:37;7.50;99.90
33460;DHT22;19795;53.160;6.612;2023-01-30T13:37:13;7.40;99.90
33460;DHT22;19795;53.160;6.612;2023-01-30T13:44:50;7.60;99.90
33460;DHT22;19795;53.160;6.612;2023-01-30T13:47:34;7.50;99.90
33460;DHT22;19795;53.160;6.612;2023-01-30T13:53:03;7.50;99.90
33460;DHT22;19795;53.160;6.612;2023-01-30T14:01:11;7.50;99.90
33460;DHT22;19795;53.160;6.612;2023-01-30T14:03:38;7.70;99.90
33460;DHT22;19795;53.160;6.612;2023-01-30T14:06:25;7.70;99.90
33460;DHT22;19795;53.160;6.612;2023-01-30T14:08:55;7.80;99.90
33460;DHT22;19795;53.160;6.612;2023-01-30T14:16:46;7.80;99.90
33460;DHT22;19795;53.160;6.612;2023-01-30T14:21:59;7.70;99.90
33460;DHT22;19795;53.160;6.612;2023-01-30T14:24:27;7.60;99.90
33460;DHT22;19795;53.160;6.612;2023-01-30T14:27:01;7.60;99.90
33460;DHT22;19795;53.160;6.612;2023-01-30T14:32:09;7.50;99.90
33460;DHT22;19795;53.160;6.612;2023-01-30T14:45:51;7.50;99.90
33460;DHT22;19795;53.160;6.612;2023-01-30T14:48:28;7.50;99.90
33460;DHT22;19795;53.160;6.612;2023-01-30T14:56:41;7.40;99.90
33460;DHT22;19795;53.160;6.612;2023-01-30T14:59:31;7.40;99.90
33460;DHT22;19795;53.160;6.612;2023-01-30T15:04:45;7.40;99.90
33460;DHT22;19795;53.160;6.612;2023-01-30T15:09:54;7.40;99.90
33460;DHT22;19795;53.160;6.612;2023-01-30T15:23:50;6.00;99.90
33460;DHT22;19795;53.160;6.612;2023-01-30T15:31:36;5.80;99.90
33460;DHT22;19795;53.160;6.612;2023-01-30T15:34:02;5.70;99.90
33460;DHT22;19795;53.160;6.612;2023-01-30T15:36:31;5.60;99.90
33460;DHT22;19795;53.160;6.612;2023-01-30T15:41:29;5.60;99.90
33460;DHT22;19795;53.160;6.612;2023-01-30T15:49:42;5.50;99.90
33460;DHT22;19795;53.160;6.612;2023-01-30T15:52:22;5.60;99.90
33460;DHT22;19795;53.160;6.612;2023-01-30T15:54:55;5.60;99.90
33460;DHT22;19795;53.160;6.612;2023-01-30T15:57:25;5.60;99.90
33460;DHT22;19795;53.160;6.612;2023-01-30T15:59:55;5.50;99.90
33460;DHT22;19795;53.160;6.612;2023-01-30T16:02:28;5.60;99.90
33460;DHT22;19795;53.160;6.612;2023-01-30T16:07:44;5.70;99.90
33460;DHT22;19795;53.160;6.612;2023-01-30T16:10:18;5.80;99.90
33460;DHT22;19795;53.160;6.612;2023-01-30T16:12:44;5.80;99.90
33460;DHT22;19795;53.160;6.612;2023-01-30T16:17:44;5.80;99.90
33460;DHT22;19795;53.160;6.612;2023-01-30T16:20:15;5.90;99.90
33460;DHT22;19795;53.160;6.612;2023-01-30T16:22:44;5.90;99.90
33460;DHT22;19795;53.160;6.612;2023-01-30T16:25:20;5.90;99.90
33460;DHT22;19795;53.160;6.612;2023-01-30T16:27:47;6.00;99.90
33460;DHT22;19795;53.160;6.612;2023-01-30T16:30:21;5.90;99.90
33460;DHT22;19795;53.160;6.612;2023-01-30T16:32:47;5.90;99.90
33460;DHT22;19795;53.160;6.612;2023-01-30T16:37:53;5.80;99.90
33460;DHT22;19795;53.160;6.612;2023-01-30T16:40:22;5.70;99.90
33460;DHT22;19795;53.160;6.612;2023-01-30T16:43:02;5.70;99.90
33460;DHT22;19795;53.160;6.612;2023-01-30T16:50:42;5.50;99.90
33460;DHT22;19795;53.160;6.612;2023-01-30T16:53:12;5.40;99.90
33460;DHT22;19795;53.160;6.612;2023-01-30T16:55:41;5.30;99.90
33460;DHT22;19795;53.160;6.612;2023-01-30T16:58:18;5.30;99.90
33460;DHT22;19795;53.160;6.612;2023-01-30T17:00:49;5.40;99.90
33460;DHT22;19795;53.160;6.612;2023-01-30T17:03:27;5.30;99.90
33460;DHT22;19795;53.160;6.612;2023-01-30T17:05:56;5.40;99.90
33460;DHT22;19795;53.160;6.612;2023-01-30T17:11:04;5.50;99.90
33460;DHT22;19795;53.160;6.612;2023-01-30T17:13:41;5.40;99.90
33460;DHT22;19795;53.160;6.612;2023-01-30T17:18:52;5.60;99.90
33460;DHT22;19795;53.160;6.612;2023-01-30T17:21:19;5.50;99.90
33460;DHT22;19795;53.160;6.612;2023-01-30T17:23:49;5.40;99.90
33460;DHT22;19795;53.160;6.612;2023-01-30T17:26:15;5.40;99.90
33460;DHT22;19795;53.160;6.612;2023-01-30T17:28:42;5.40;99.90
33460;DHT22;19795;53.160;6.612;2023-01-30T17:31:12;5.50;99.90
33460;DHT22;19795;53.160;6.612;2023-01-30T17:33:37;5.50;99.90
33460;DHT22;19795;53.160;6.612;2023-01-30T17:36:05;5.40;99.90
33460;DHT22;19795;53.160;6.612;2023-01-30T17:38:34;5.30;99.90
33460;DHT22;19795;53.160;6.612;2023-01-30T17:41:00;5.30;99.90
33460;DHT22;19795;53.160;6.612;2023-01-30T17:43:28;5.40;99.90
33460;DHT22;19795;53.160;6.612;2023-01-30T17:45:55;5.40;99.90
33460;DHT22;19795;53.160;6.612;2023-01-30T17:48:22;5.50;99.90
33460;DHT22;19795;53.160;6.612;2023-01-30T17:50:47;5.50;99.90
33460;DHT22;19795;53.160;6.612;2023-01-30T17:53:13;5.50;99.90
33460;DHT22;19795;53.160;6.612;2023-01-30T17:55:39;5.40;99.90
33460;DHT22;19795;53.160;6.612;2023-01-30T17:58:04;5.40;99.90
33460;DHT22;19795;53.160;6.612;2023-01-30T18:00:30;5.20;99.90
33460;DHT22;19795;53.160;6.612;2023-01-30T18:02:56;5.20;99.90
33460;DHT22;19795;53.160;6.612;2023-01-30T18:05:22;5.30;99.90
33460;DHT22;19795;53.160;6.612;2023-01-30T18:07:47;5.20;99.90
33460;DHT22;19795;53.160;6.612;2023-01-30T18:10:18;5.20;99.90
33460;DHT22;19795;53.160;6.612;2023-01-30T18:12:44;5.70;99.90
33460;DHT22;19795;53.160;6.612;2023-01-30T18:15:14;5.50;99.90
33460;DHT22;19795;53.160;6.612;2023-01-30T18:17:47;5.60;99.90
33460;DHT22;19795;53.160;6.612;2023-01-30T18:20:16;5.50;99.90
33460;DHT22;19795;53.160;6.612;2023-01-30T18:22:42;5.50;99.90
33460;DHT22;19795;53.160;6.612;2023-01-30T18:25:08;5.60;99.90
33460;DHT22;19795;53.160;6.612;2023-01-30T18:27:40;5.70;99.90
33460;DHT22;19795;53.160;6.612;2023-01-30T18:30:09;5.60;99.90
33460;DHT22;19795;53.160;6.612;2023-01-30T18:32:35;5.50;99.90
33460;DHT22;19795;53.160;6.612;2023-01-30T18:35:02;5.40;99.90
33460;DHT22;19795;53.160;6.612;2023-01-30T18:37:29;5.40;99.90
33460;DHT22;19795;53.160;6.612;2023-01-30T18:39:55;5.40;99.90
33460;DHT22;19795;53.160;6.612;2023-01-30T18:42:20;5.30;99.90
33460;DHT22;19795;53.160;6.612;2023-01-30T18:44:46;5.30;99.90
33460;DHT22;19795;53.160;6.612;2023-01-30T18:47:12;5.10;99.90
33460;DHT22;19795;53.160;6.612;2023-01-30T18:49:37;5.10;99.90
33460;DHT22;19795;53.160;6.612;2023-01-30T18:52:03;5.00;99.90
33460;DHT22;19795;53.160;6.612;2023-01-30T18:54:29;4.80;99.90
33460;DHT22;19795;53.160;6.612;2023-01-30T18:56:55;4.70;99.90
33460;DHT22;19795;53.160;6.612;2023-01-30T18:59:22;4.70;99.90
33460;DHT22;19795;53.160;6.612;2023-01-30T19:01:47;4.70;99.90
33460;DHT22;19795;53.160;6.612;2023-01-30T19:04:13;4.70;99.90
33460;DHT22;19795;53.160;6.612;2023-01-30T19:06:41;4.60;99.90
33460;DHT22;19795;53.160;6.612;2023-01-30T19:09:10;4.50;99.90
33460;DHT22;19795;53.160;6.612;2023-01-30T19:11:36;4.60;99.90
33460;DHT22;19795;53.160;6.612;2023-01-30T19:14:20;4.60;99.90
33460;DHT22;19795;53.160;6.612;2023-01-30T19:16:46;4.70;99.90
33460;DHT22;19795;53.160;6.612;2023-01-30T19:19:11;4.70;99.90
33460;DHT22;19795;53.160;6.612;2023-01-30T19:21:37;4.70;99.90
33460;DHT22;19795;53.160;6.612;2023-01-30T19:24:11;4.70;99.90
33460;DHT22;19795;53.160;6.612;2023-01-30T19:26:37;4.80;99.90
33460;DHT22;19795;53.160;6.612;2023-01-30T19:29:03;4.80;99.90
33460;DHT22;19795;53.160;6.612;2023-01-30T19:31:29;5.00;99.90
33460;DHT22;19795;53.160;6.612;2023-01-30T19:33:57;4.80;99.90
33460;DHT22;19795;53.160;6.612;2023-01-30T19:36:28;4.80;99.90
33460;DHT22;19795;53.160;6.612;2023-01-30T19:38:54;4.60;99.90
33460;DHT22;19795;53.160;6.612;2023-01-30T19:41:26;4.40;99.90
33460;DHT22;19795;53.160;6.612;2023-01-30T19:43:54;4.20;99.90
33460;DHT22;19795;53.160;6.612;2023-01-30T19:46:22;4.20;99.90
33460;DHT22;19795;53.160;6.612;2023-01-30T19:48:48;4.30;99.90
33460;DHT22;19795;53.160;6.612;2023-01-30T19:51:16;4.40;99.90
33460;DHT22;19795;53.160;6.612;2023-01-30T19:53:45;4.60;99.90
33460;DHT22;19795;53.160;6.612;2023-01-30T19:56:12;4.80;99.90
33460;DHT22;19795;53.160;6.612;2023-01-30T19:58:39;4.80;99.90
33460;DHT22;19795;53.160;6.612;2023-01-30T20:01:11;4.80;99.90
33460;DHT22;19795;53.160;6.612;2023-01-30T20:03:37;4.80;99.90
33460;DHT22;19795;53.160;6.612;2023-01-30T20:06:12;4.80;99.90
33460;DHT22;19795;53.160;6.612;2023-01-30T20:08:38;4.90;99.90
33460;DHT22;19795;53.160;6.612;2023-01-30T20:11:06;4.90;99.90
33460;DHT22;19795;53.160;6.612;2023-01-30T20:13:34;4.90;99.90
33460;DHT22;19795;53.160;6.612;2023-01-30T20:16:02;5.00;99.90
33460;DHT22;19795;53.160;6.612;2023-01-30T20:18:30;5.00;99.90
33460;DHT22;19795;53.160;6.612;2023-01-30T20:21:02;5.00;99.90
33460;DHT22;19795;53.160;6.612;2023-01-30T20:23:28;4.80;99.90
33460;DHT22;19795;53.160;6.612;2023-01-30T20:25:53;4.70;99.90
33460;DHT22;19795;53.160;6.612;2023-01-30T20:28:19;4.80;99.90
33460;DHT22;19795;53.160;6.612;2023-01-30T20:30:45;4.70;99.90
33460;DHT22;19795;53.160;6.612;2023-01-30T20:33:10;4.70;99.90
33460;DHT22;19795;53.160;6.612;2023-01-30T20:35:36;4.80;99.90
33460;DHT22;19795;53.160;6.612;2023-01-30T20:38:02;4.80;99.90
33460;DHT22;19795;53.160;6.612;2023-01-30T20:40:27;4.70;99.90
33460;DHT22;19795;53.160;6.612;2023-01-30T20:42:53;4.70;99.90
33460;DHT22;19795;53.160;6.612;2023-01-30T20:45:18;4.60;99.90
33460;DHT22;19795;53.160;6.612;2023-01-30T20:47:44;4.70;99.90
33460;DHT22;19795;53.160;6.612;2023-01-30T20:50:10;4.60;99.90
33460;DHT22;19795;53.160;6.612;2023-01-30T20:52:38;4.70;99.90
33460;DHT22;19795;53.160;6.612;2023-01-30T20:55:04;4.60;99.90
33460;DHT22;19795;53.160;6.612;2023-01-30T20:57:30;4.60;99.90
33460;DHT22;19795;53.160;6.612;2023-01-30T20:59:56;4.60;99.90
33460;DHT22;19795;53.160;6.612;2023-01-30T21:02:21;4.60;99.90
33460;DHT22;19795;53.160;6.612;2023-01-30T21:04:47;4.60;99.90
33460;DHT22;19795;53.160;6.612;2023-01-30T21:07:13;4.60;99.90
33460;DHT22;19795;53.160;6.612;2023-01-30T21:09:38;4.60;99.90
33460;DHT22;19795;53.160;6.612;2023-01-30T21:12:04;4.70;99.90
33460;DHT22;19795;53.160;6.612;2023-01-30T21:14:30;4.60;99.90
33460;DHT22;19795;53.160;6.612;2023-01-30T21:16:55;4.50;99.90
33460;DHT22;19795;53.160;6.612;2023-01-30T21:19:21;4.50;99.90
33460;DHT22;19795;53.160;6.612;2023-01-30T21:21:49;4.60;99.90
33460;DHT22;19795;53.160;6.612;2023-01-30T21:24:20;4.50;99.90
33460;DHT22;19795;53.160;6.612;2023-01-30T21:26:46;4.50;99.90
33460;DHT22;19795;53.160;6.612;2023-01-30T21:29:14;4.30;99.90
33460;DHT22;19795;53.160;6.612;2023-01-30T21:31:41;4.40;99.90
33460;DHT22;19795;53.160;6.612;2023-01-30T21:34:08;4.30;99.90
33460;DHT22;19795;53.160;6.612;2023-01-30T21:36:34;4.20;99.90
33460;DHT22;19795;53.160;6.612;2023-01-30T21:39:00;4.00;99.90
33460;DHT22;19795;53.160;6.612;2023-01-30T21:41:44;4.00;99.90
33460;DHT22;19795;53.160;6.612;2023-01-30T21:44:17;4.20;99.90
33460;DHT22;19795;53.160;6.612;2023-01-30T21:46:46;4.30;99.90
33460;DHT22;19795;53.160;6.612;2023-01-30T21:49:15;4.40;99.90
